Time;durP1;ratioP1;P1;durP2;ratioP2;P2;SDS_P1;SDS_P2;PMS_P1;PMS_P2;Temp;Humidity;BMP_temperature;BMP_pressure;BME280_temperature;BME280_humidity;BME280_pressure;Samples;Min_cycle;Max_cycle;Signal;HPM_P1;HPM_P2
2021/11/16 00:00:44;;;;;;;324.60;305.83;;;6.70;99.90;;;;;;4369535;32;20203;-63
2021/11/16 00:03:12;;;;;;;310.47;292.63;;;6.70;99.90;;;;;;4376697;32;20169;-62
2021/11/16 00:05:39;;;;;;;315.53;297.40;;;6.60;99.90;;;;;;4378725;32;20191;-63
2021/11/16 00:08:08;;;;;;;330.23;311.43;;;6.60;99.90;;;;;;4366887;32;20164;-62
2021/11/16 00:10:38;;;;;;;323.00;304.47;;;6.60;99.90;;;;;;4369879;32;20177;-61
2021/11/16 00:13:10;;;;;;;299.07;281.23;;;6.70;99.90;;;;;;4364430;32;20147;-63
2021/11/16 00:15:39;;;;;;;324.53;306.00;;;6.60;99.90;;;;;;4366756;32;20530;-61
2021/11/16 00:18:08;;;;;;;353.23;332.80;;;6.60;99.90;;;;;;4366864;32;20145;-61
2021/11/16 00:20:39;;;;;;;352.37;332.10;;;6.60;99.90;;;;;;4363763;32;20176;-62
2021/11/16 00:23:14;;;;;;;356.43;334.90;;;6.70;99.90;;;;;;4372367;32;20203;-62
2021/11/16 00:25:41;;;;;;;346.07;326.23;;;6.70;99.90;;;;;;4376284;32;20647;-64
2021/11/16 00:28:09;;;;;;;313.50;295.60;;;6.70;99.90;;;;;;4372621;32;20184;-62
2021/11/16 00:30:36;;;;;;;324.37;305.87;;;6.70;99.90;;;;;;4371151;32;20228;-61
2021/11/16 00:33:03;;;;;;;313.97;295.00;;;6.60;99.90;;;;;;4375496;32;20185;-61
2021/11/16 00:35:31;;;;;;;321.70;303.43;;;6.60;99.90;;;;;;4377760;32;20493;-63
2021/11/16 00:37:58;;;;;;;342.07;323.50;;;6.70;99.90;;;;;;4379285;32;20171;-61
2021/11/16 00:40:25;;;;;;;354.57;334.53;;;6.70;99.90;;;;;;4374460;32;20615;-63
2021/11/16 00:42:52;;;;;;;344.63;324.67;;;6.70;99.90;;;;;;4364019;32;20279;-60
2021/11/16 00:45:19;;;;;;;351.93;332.03;;;6.70;99.90;;;;;;4374709;32;20173;-62
2021/11/16 00:47:46;;;;;;;344.43;324.33;;;6.70;99.90;;;;;;4363138;32;20145;-62
2021/11/16 00:50:15;;;;;;;343.60;324.33;;;6.70;99.90;;;;;;4370724;32;20204;-60
2021/11/16 00:52:47;;;;;;;327.63;309.40;;;6.70;99.90;;;;;;4380608;32;20152;-62
2021/11/16 00:55:14;;;;;;;332.87;313.70;;;6.70;99.90;;;;;;4368911;32;20156;-61
2021/11/16 00:57:41;;;;;;;329.63;310.80;;;6.70;99.90;;;;;;4380233;32;20170;-61
2021/11/16 01:00:10;;;;;;;348.53;328.00;;;6.70;99.90;;;;;;4387454;32;20632;-61
2021/11/16 01:02:38;;;;;;;349.83;329.97;;;6.70;99.90;;;;;;4374931;32;20200;-61
2021/11/16 01:05:07;;;;;;;345.03;325.77;;;6.70;99.90;;;;;;4375742;32;20171;-61
2021/11/16 01:07:34;;;;;;;335.07;316.17;;;6.70;99.90;;;;;;4373133;32;20186;-61
2021/11/16 01:10:03;;;;;;;339.40;319.87;;;6.70;99.90;;;;;;4381410;32;20177;-61
2021/11/16 01:12:30;;;;;;;340.80;321.13;;;6.70;99.90;;;;;;4377572;32;20174;-61
2021/11/16 01:14:59;;;;;;;378.73;357.73;;;6.70;99.90;;;;;;4383314;32;20149;-62
2021/11/16 01:17:26;;;;;;;360.43;339.83;;;6.70;99.90;;;;;;4387797;32;20186;-62
2021/11/16 01:19:53;;;;;;;349.27;329.03;;;6.70;99.90;;;;;;4381244;32;20243;-62
2021/11/16 01:22:20;;;;;;;339.37;319.60;;;6.70;99.90;;;;;;4382478;32;20258;-61
2021/11/16 01:24:47;;;;;;;332.50;313.00;;;6.70;99.90;;;;;;4375286;32;20223;-62
2021/11/16 01:27:20;;;;;;;331.93;313.07;;;6.70;99.90;;;;;;4374260;32;20153;-61
2021/11/16 01:29:48;;;;;;;327.67;308.80;;;6.70;99.90;;;;;;4366005;32;20144;-63
2021/11/16 01:32:27;;;;;;;317.07;298.60;;;6.70;99.90;;;;;;4379890;32;20585;-61
2021/11/16 01:34:55;;;;;;;311.67;293.87;;;6.70;99.90;;;;;;4376941;32;20150;-62
2021/11/16 01:37:23;;;;;;;323.33;304.37;;;6.70;99.90;;;;;;4367878;32;20153;-61
2021/11/16 01:39:50;;;;;;;346.17;326.53;;;6.60;99.90;;;;;;4370451;32;20240;-61
2021/11/16 01:42:19;;;;;;;338.47;318.67;;;6.60;99.90;;;;;;4377232;32;20458;-61
2021/11/16 01:44:46;;;;;;;333.67;314.47;;;6.60;99.90;;;;;;4366327;32;20175;-62
2021/11/16 01:47:13;;;;;;;326.47;307.90;;;6.70;99.90;;;;;;4376207;32;20679;-61
2021/11/16 01:49:41;;;;;;;333.33;313.57;;;6.70;99.90;;;;;;4368830;32;20556;-63
2021/11/16 01:52:08;;;;;;;333.67;314.70;;;6.60;99.90;;;;;;4382190;32;20148;-63
2021/11/16 01:54:37;;;;;;;316.87;298.87;;;6.60;99.90;;;;;;4378253;32;20177;-61
2021/11/16 01:57:09;;;;;;;316.23;298.10;;;6.70;99.90;;;;;;4384348;32;20191;-62
2021/11/16 01:59:37;;;;;;;314.47;296.13;;;6.70;99.90;;;;;;4365754;32;20167;-61
2021/11/16 02:02:05;;;;;;;334.40;314.97;;;6.70;99.90;;;;;;4377375;32;20153;-61
2021/11/16 02:04:32;;;;;;;332.43;313.83;;;6.70;99.90;;;;;;4377746;32;20182;-61
2021/11/16 02:06:59;;;;;;;333.70;314.57;;;6.70;99.90;;;;;;4380943;32;20156;-61
2021/11/16 02:09:27;;;;;;;334.00;314.87;;;6.70;99.90;;;;;;4374267;32;20178;-63
2021/11/16 02:11:54;;;;;;;324.27;305.27;;;6.60;99.90;;;;;;4376608;32;20572;-63
2021/11/16 02:14:21;;;;;;;323.47;304.73;;;6.70;99.90;;;;;;4375667;32;20182;-61
2021/11/16 02:16:50;;;;;;;347.83;328.03;;;6.60;99.90;;;;;;4377211;32;20515;-62
2021/11/16 02:19:20;;;;;;;335.93;316.57;;;6.60;99.90;;;;;;4385703;32;20196;-62
2021/11/16 02:21:53;;;;;;;334.07;314.90;;;6.70;99.90;;;;;;4375057;32;20183;-61
2021/11/16 02:24:21;;;;;;;326.77;307.67;;;6.70;99.90;;;;;;4374097;32;20206;-61
2021/11/16 02:26:48;;;;;;;311.70;292.77;;;6.70;99.90;;;;;;4377634;32;20152;-61
2021/11/16 02:29:15;;;;;;;314.03;296.03;;;6.70;99.90;;;;;;4376857;32;20170;-61
2021/11/16 02:31:44;;;;;;;323.97;305.07;;;6.70;99.90;;;;;;4377307;32;20148;-61
2021/11/16 02:34:12;;;;;;;321.17;302.50;;;6.60;99.90;;;;;;4376960;32;20239;-61
2021/11/16 02:36:41;;;;;;;329.60;310.70;;;6.60;99.90;;;;;;4375217;32;20178;-61
2021/11/16 02:39:12;;;;;;;305.87;288.23;;;6.50;99.90;;;;;;4384244;32;20468;-62
2021/11/16 02:41:40;;;;;;;328.47;309.23;;;6.60;99.90;;;;;;4376595;32;20799;-61
2021/11/16 02:44:09;;;;;;;314.13;296.33;;;6.50;99.90;;;;;;4370977;32;20199;-61
2021/11/16 02:46:37;;;;;;;326.47;307.33;;;6.60;99.90;;;;;;4384257;32;20156;-61
2021/11/16 02:49:06;;;;;;;320.00;301.83;;;6.60;99.90;;;;;;4385632;32;20262;-61
2021/11/16 02:51:34;;;;;;;353.70;333.47;;;6.50;99.90;;;;;;4376117;32;20166;-61
2021/11/16 02:54:02;;;;;;;343.83;324.17;;;6.60;99.90;;;;;;4381357;32;20201;-61
2021/11/16 02:56:31;;;;;;;328.97;309.73;;;6.60;99.90;;;;;;4381135;32;20615;-62
2021/11/16 02:59:00;;;;;;;334.03;315.73;;;6.60;99.90;;;;;;4385843;32;20210;-61
2021/11/16 03:01:26;;;;;;;326.57;307.73;;;6.60;99.90;;;;;;4377298;32;20168;-61
2021/11/16 03:03:54;;;;;;;343.20;323.93;;;6.60;99.90;;;;;;4377168;32;20205;-61
2021/11/16 03:06:21;;;;;;;331.53;312.53;;;6.60;99.90;;;;;;4376147;32;20168;-61
2021/11/16 03:08:48;;;;;;;344.80;324.53;;;6.70;99.90;;;;;;4374006;32;20199;-61
2021/11/16 03:11:16;;;;;;;313.27;295.10;;;6.70;99.90;;;;;;4384179;32;20164;-61
2021/11/16 03:13:45;;;;;;;332.83;314.03;;;6.70;99.90;;;;;;4376733;32;20168;-61
2021/11/16 03:16:16;;;;;;;333.23;313.77;;;6.60;99.90;;;;;;4381460;32;20180;-62
2021/11/16 03:18:45;;;;;;;330.93;312.03;;;6.70;99.90;;;;;;4373681;32;20654;-61
2021/11/16 03:21:13;;;;;;;318.03;299.10;;;6.60;99.90;;;;;;4374162;32;20181;-62
2021/11/16 03:23:42;;;;;;;347.93;328.10;;;6.60;99.90;;;;;;4381175;32;20211;-61
2021/11/16 03:26:10;;;;;;;352.13;331.30;;;6.70;99.90;;;;;;4380718;32;20152;-62
2021/11/16 03:28:41;;;;;;;345.73;325.97;;;6.70;99.90;;;;;;4378605;32;20157;-62
2021/11/16 03:31:18;;;;;;;359.23;338.43;;;6.60;99.90;;;;;;4374162;32;20197;-61
2021/11/16 03:33:45;;;;;;;357.13;336.17;;;6.60;99.90;;;;;;4373311;32;20221;-61
2021/11/16 03:36:13;;;;;;;343.40;323.83;;;6.60;99.90;;;;;;4374573;32;20607;-63
2021/11/16 03:38:42;;;;;;;334.47;315.27;;;6.70;99.90;;;;;;4374451;32;20157;-61
2021/11/16 03:41:11;;;;;;;317.87;299.07;;;6.60;99.90;;;;;;4366970;32;20153;-61
2021/11/16 03:43:39;;;;;;;337.40;317.90;;;6.60;99.90;;;;;;4379182;32;20163;-61
2021/11/16 03:46:06;;;;;;;335.73;316.13;;;6.60;99.90;;;;;;4365913;32;20670;-61
2021/11/16 03:48:34;;;;;;;333.03;313.63;;;6.60;99.90;;;;;;4378433;32;20600;-62
2021/11/16 03:51:03;;;;;;;319.30;300.90;;;6.60;99.90;;;;;;4373187;32;20158;-61
2021/11/16 03:53:30;;;;;;;318.43;300.17;;;6.60;99.90;;;;;;4376318;32;21358;-63
2021/11/16 03:55:57;;;;;;;334.60;315.53;;;6.60;99.90;;;;;;4378483;32;20187;-61
2021/11/16 03:58:26;;;;;;;336.43;317.13;;;6.60;99.90;;;;;;4382321;32;20203;-61
2021/11/16 04:00:57;;;;;;;356.93;337.00;;;6.60;99.90;;;;;;4372610;32;20148;-61
2021/11/16 04:03:26;;;;;;;355.17;334.40;;;6.60;99.90;;;;;;4373328;32;20203;-61
2021/11/16 04:05:55;;;;;;;353.17;332.50;;;6.70;99.90;;;;;;4373782;32;20179;-62
2021/11/16 04:08:24;;;;;;;342.43;323.23;;;6.70;99.90;;;;;;4369593;32;20208;-61
2021/11/16 04:10:51;;;;;;;351.13;330.77;;;6.70;99.90;;;;;;4372553;32;20303;-61
2021/11/16 04:13:18;;;;;;;337.57;317.67;;;6.60;99.90;;;;;;4384731;32;20165;-63
2021/11/16 04:15:47;;;;;;;347.90;327.47;;;6.60;99.90;;;;;;4368352;32;20311;-59
2021/11/16 04:18:14;;;;;;;362.23;341.70;;;6.60;99.90;;;;;;4375877;32;20175;-61
2021/11/16 04:20:44;;;;;;;337.10;317.73;;;6.60;99.90;;;;;;4382407;32;20172;-61
2021/11/16 04:23:14;;;;;;;347.83;328.27;;;6.60;99.90;;;;;;4385859;32;20164;-63
2021/11/16 04:25:44;;;;;;;341.57;322.33;;;6.60;99.90;;;;;;4379481;32;20180;-61
2021/11/16 04:28:12;;;;;;;359.70;339.33;;;6.70;99.90;;;;;;4380918;32;20176;-61
2021/11/16 04:30:39;;;;;;;336.63;318.17;;;6.60;99.90;;;;;;4375860;32;20206;-61
2021/11/16 04:33:07;;;;;;;355.00;334.33;;;6.60;99.90;;;;;;4365173;32;20228;-61
2021/11/16 04:35:34;;;;;;;330.57;311.47;;;6.60;99.90;;;;;;4366984;32;20168;-61
2021/11/16 04:38:04;;;;;;;341.27;321.67;;;6.60;99.90;;;;;;4368727;32;20168;-61
2021/11/16 04:40:36;;;;;;;362.00;341.33;;;6.60;99.90;;;;;;4377956;32;20179;-61
2021/11/16 04:43:07;;;;;;;350.67;331.50;;;6.60;99.90;;;;;;4377290;32;20217;-61
2021/11/16 04:45:36;;;;;;;353.23;333.53;;;6.60;99.90;;;;;;4379429;32;20156;-61
2021/11/16 04:48:07;;;;;;;352.97;333.40;;;6.60;99.90;;;;;;4368919;32;20242;-61
2021/11/16 04:50:47;;;;;;;343.73;323.67;;;6.60;99.90;;;;;;4379794;32;20234;-63
2021/11/16 04:53:35;;;;;;;348.37;328.53;;;6.60;99.90;;;;;;4385769;32;20147;-62
2021/11/16 05:04:19;;;;;;;341.33;321.63;;;6.60;99.90;;;;;;4384771;32;20206;-61
2021/11/16 05:06:46;;;;;;;317.80;299.00;;;6.60;99.90;;;;;;4375769;32;20596;-61
2021/11/16 05:09:14;;;;;;;357.07;335.60;;;6.50;99.90;;;;;;4373241;32;20164;-61
2021/11/16 05:11:43;;;;;;;363.17;341.87;;;6.30;99.90;;;;;;4375350;32;20176;-61
2021/11/16 05:14:10;;;;;;;383.50;361.23;;;6.40;99.90;;;;;;4370616;32;20223;-61
2021/11/16 05:16:37;;;;;;;385.63;363.23;;;6.30;99.90;;;;;;4368960;32;20183;-61
2021/11/16 05:19:04;;;;;;;395.23;372.57;;;6.40;99.90;;;;;;4375378;32;20164;-61
2021/11/16 05:21:31;;;;;;;384.77;362.83;;;6.40;99.90;;;;;;4375734;32;20551;-61
2021/11/16 05:24:00;;;;;;;355.87;335.10;;;6.50;99.90;;;;;;4371805;32;20164;-61
2021/11/16 05:26:28;;;;;;;363.13;342.50;;;6.40;99.90;;;;;;4373219;32;20238;-61
2021/11/16 05:28:57;;;;;;;361.80;340.70;;;6.50;99.90;;;;;;4384185;32;20207;-63
2021/11/16 05:31:24;;;;;;;354.70;334.03;;;6.50;99.90;;;;;;4375946;32;20488;-62
2021/11/16 05:33:54;;;;;;;349.47;328.47;;;6.50;99.90;;;;;;4375973;32;20156;-63
2021/11/16 05:36:24;;;;;;;333.60;314.13;;;6.40;99.90;;;;;;4375067;32;20310;-62
2021/11/16 05:38:52;;;;;;;331.63;311.67;;;6.40;99.90;;;;;;4373891;32;20208;-63
2021/11/16 05:41:20;;;;;;;343.97;323.73;;;6.30;99.90;;;;;;4375410;32;20168;-62
2021/11/16 05:43:48;;;;;;;357.63;336.50;;;6.10;99.90;;;;;;4371826;32;20216;-62
2021/11/16 05:46:20;;;;;;;381.70;358.27;;;6.00;99.90;;;;;;4374749;32;20223;-61
2021/11/16 05:48:49;;;;;;;396.73;373.40;;;6.00;99.90;;;;;;4370025;32;20156;-61
2021/11/16 05:51:18;;;;;;;375.53;353.87;;;6.30;99.90;;;;;;4368613;32;20613;-61
2021/11/16 05:53:51;;;;;;;377.40;354.83;;;6.20;99.90;;;;;;4374596;32;20255;-61
2021/11/16 05:56:19;;;;;;;368.73;347.43;;;6.20;99.90;;;;;;4374877;32;20286;-61
2021/11/16 05:58:49;;;;;;;370.47;349.23;;;6.20;99.90;;;;;;4384574;32;20600;-61
2021/11/16 06:01:18;;;;;;;374.07;352.13;;;6.20;99.90;;;;;;4372931;32;20604;-62
2021/11/16 06:03:50;;;;;;;350.07;329.63;;;6.30;99.90;;;;;;4377951;32;20211;-62
2021/11/16 06:06:19;;;;;;;336.60;316.57;;;6.30;99.90;;;;;;4370004;32;20515;-62
2021/11/16 06:08:48;;;;;;;356.33;336.10;;;6.30;99.90;;;;;;4384140;32;20283;-63
2021/11/16 06:11:17;;;;;;;346.00;325.73;;;6.40;99.90;;;;;;4373868;32;20211;-62
2021/11/16 06:13:43;;;;;;;332.40;313.13;;;6.40;99.90;;;;;;4375847;32;20218;-62
2021/11/16 06:16:11;;;;;;;328.00;309.03;;;6.40;99.90;;;;;;4371506;32;20198;-61
2021/11/16 06:18:40;;;;;;;324.80;305.17;;;6.40;99.90;;;;;;4371010;32;20202;-62
2021/11/16 06:21:07;;;;;;;320.73;301.97;;;6.30;99.90;;;;;;4370992;32;20172;-62
2021/11/16 06:23:35;;;;;;;314.00;295.23;;;6.40;99.90;;;;;;4374335;32;20226;-61
2021/11/16 06:26:02;;;;;;;343.40;323.40;;;6.40;99.90;;;;;;4369369;32;20529;-63
2021/11/16 06:28:29;;;;;;;326.53;307.40;;;6.40;99.90;;;;;;4373763;32;20188;-62
2021/11/16 06:30:56;;;;;;;335.30;315.40;;;6.50;99.90;;;;;;4373671;32;20203;-63
2021/11/16 06:33:24;;;;;;;348.40;328.23;;;6.40;99.90;;;;;;4369529;32;20155;-63
2021/11/16 06:35:53;;;;;;;342.90;322.43;;;6.50;99.90;;;;;;4372473;32;20178;-62
2021/11/16 06:38:20;;;;;;;300.97;282.87;;;6.50;99.90;;;;;;4374086;32;20188;-63
2021/11/16 06:40:48;;;;;;;338.87;318.57;;;6.30;99.90;;;;;;4373764;32;20207;-61
2021/11/16 06:43:21;;;;;;;355.57;334.40;;;6.40;99.90;;;;;;4370709;32;20205;-61
2021/11/16 06:45:51;;;;;;;347.07;326.77;;;6.40;99.90;;;;;;4368522;32;20178;-60
2021/11/16 06:48:18;;;;;;;344.77;324.87;;;6.50;99.90;;;;;;4372798;32;20164;-61
2021/11/16 06:50:45;;;;;;;364.97;344.13;;;6.40;99.90;;;;;;4372857;32;20207;-63
2021/11/16 06:53:14;;;;;;;350.23;329.53;;;6.40;99.90;;;;;;4375530;32;20196;-63
2021/11/16 06:55:41;;;;;;;353.30;332.07;;;6.40;99.90;;;;;;4374937;32;20231;-63
2021/11/16 07:02:23;;;;;;;324.63;305.30;;;6.40;99.90;;;;;;4374139;32;20210;-61
2021/11/16 07:04:53;;;;;;;309.13;291.07;;;6.40;99.90;;;;;;4368134;32;20167;-62
2021/11/16 07:07:19;;;;;;;322.53;303.53;;;6.50;99.90;;;;;;4371953;32;20176;-61
2021/11/16 07:09:48;;;;;;;360.93;340.60;;;6.40;99.90;;;;;;4372222;32;20211;-63
2021/11/16 07:12:23;;;;;;;339.50;319.50;;;6.40;99.90;;;;;;4369361;32;20180;-61
2021/11/16 07:14:53;;;;;;;350.50;329.87;;;6.40;99.90;;;;;;4371101;32;20682;-63
2021/11/16 07:17:22;;;;;;;354.80;334.17;;;6.50;99.90;;;;;;4371934;32;20216;-62
2021/11/16 07:19:55;;;;;;;376.37;354.53;;;6.50;99.90;;;;;;4373245;32;20214;-62
2021/11/16 07:22:26;;;;;;;350.77;330.70;;;6.50;99.90;;;;;;4369713;32;20456;-60
2021/11/16 07:25:00;;;;;;;359.60;338.50;;;6.50;99.90;;;;;;4371681;32;20171;-62
2021/11/16 07:27:54;;;;;;;377.23;355.13;;;6.50;99.90;;;;;;4369372;32;20588;-61
2021/11/16 07:30:42;;;;;;;344.50;323.20;;;6.60;99.90;;;;;;4371392;32;20206;-63
2021/11/16 07:33:14;;;;;;;350.33;328.93;;;6.50;99.90;;;;;;4373519;32;20259;-63
2021/11/16 07:35:43;;;;;;;366.67;345.47;;;6.50;99.90;;;;;;4376394;32;20461;-62
2021/11/16 07:38:15;;;;;;;338.97;318.83;;;6.50;99.90;;;;;;4373607;32;20223;-60
2021/11/16 07:41:08;;;;;;;371.27;349.03;;;6.60;99.90;;;;;;4370395;32;20168;-61
2021/11/16 07:43:39;;;;;;;364.40;343.20;;;6.50;99.90;;;;;;4372639;32;20186;-62
2021/11/16 07:46:09;;;;;;;359.73;338.33;;;6.60;99.90;;;;;;4386457;32;20167;-61
2021/11/16 07:48:44;;;;;;;365.77;344.20;;;6.60;99.90;;;;;;4375363;32;20192;-63
2021/11/16 07:51:24;;;;;;;364.60;342.93;;;6.50;99.90;;;;;;4378073;32;20167;-61
2021/11/16 07:53:57;;;;;;;370.17;349.07;;;6.50;99.90;;;;;;4374702;32;20209;-61
2021/11/16 07:56:30;;;;;;;362.23;340.70;;;6.50;99.90;;;;;;4367437;32;20202;-63
2021/11/16 07:59:08;;;;;;;375.83;353.50;;;6.50;99.90;;;;;;4382214;32;20210;-62
2021/11/16 08:01:44;;;;;;;365.53;343.57;;;6.60;99.90;;;;;;4385138;32;20179;-60
2021/11/16 08:04:23;;;;;;;373.27;351.27;;;6.50;99.90;;;;;;4376650;32;20176;-62
2021/11/16 08:09:49;;;;;;;358.00;337.17;;;6.60;99.90;;;;;;4311657;33;20177;-62
2021/11/16 08:12:34;;;;;;;355.67;335.50;;;6.60;99.90;;;;;;4316836;33;20241;-60
2021/11/16 08:15:41;;;;;;;335.30;315.70;;;6.60;99.90;;;;;;4314404;33;20234;-62
2021/11/16 08:18:12;;;;;;;320.43;301.33;;;6.60;99.90;;;;;;4313348;33;20229;-61
2021/11/16 08:21:01;;;;;;;318.40;299.57;;;6.60;99.90;;;;;;4319464;33;20296;-61
2021/11/16 08:23:32;;;;;;;295.20;277.33;;;6.60;99.90;;;;;;4323404;33;20630;-60
2021/11/16 08:26:10;;;;;;;313.70;294.80;;;6.60;99.90;;;;;;4319454;33;20173;-61
2021/11/16 08:28:48;;;;;;;341.50;322.07;;;6.60;99.90;;;;;;4315375;33;20165;-61
2021/11/16 08:31:21;;;;;;;335.77;315.43;;;6.60;99.90;;;;;;4320354;33;20196;-62
2021/11/16 08:33:57;;;;;;;337.90;318.30;;;6.60;99.90;;;;;;4324876;33;20173;-62
2021/11/16 08:36:28;;;;;;;333.53;313.97;;;6.60;99.90;;;;;;4324592;33;20192;-62
2021/11/16 08:39:01;;;;;;;340.43;319.63;;;6.60;99.90;;;;;;4314559;33;20585;-62
2021/11/16 08:41:35;;;;;;;342.60;322.63;;;6.60;99.90;;;;;;4314993;33;20257;-63
2021/11/16 08:44:18;;;;;;;320.17;300.87;;;6.60;99.90;;;;;;4324613;33;20208;-62
2021/11/16 08:47:11;;;;;;;322.07;302.60;;;6.60;99.90;;;;;;4337301;32;20168;-63
2021/11/16 08:49:48;;;;;;;332.97;313.40;;;6.50;99.90;;;;;;4385809;32;20153;-63
2021/11/16 08:52:18;;;;;;;334.20;314.43;;;6.50;99.90;;;;;;4376820;32;20161;-63
2021/11/16 08:55:10;;;;;;;355.87;336.00;;;6.50;99.90;;;;;;4372148;32;20169;-61
2021/11/16 08:57:38;;;;;;;333.17;312.63;;;6.50;99.90;;;;;;4385461;32;20156;-62
2021/11/16 09:00:23;;;;;;;351.90;331.10;;;6.50;99.90;;;;;;4376075;32;20657;-62
2021/11/16 09:03:03;;;;;;;344.03;324.33;;;6.60;99.90;;;;;;4375323;32;20189;-62
2021/11/16 09:05:35;;;;;;;337.77;317.63;;;6.60;99.90;;;;;;4378252;32;20176;-60
2021/11/16 09:08:12;;;;;;;332.17;312.23;;;6.60;99.90;;;;;;4378699;32;20176;-61
2021/11/16 09:10:43;;;;;;;330.17;310.73;;;6.60;99.90;;;;;;4376203;32;20513;-60
2021/11/16 09:13:19;;;;;;;338.50;319.17;;;6.60;99.90;;;;;;4377371;32;20176;-61
2021/11/16 09:16:02;;;;;;;290.30;272.83;;;6.60;99.90;;;;;;4375065;32;20192;-63
2021/11/16 09:18:36;;;;;;;340.07;320.40;;;6.50;99.90;;;;;;4378467;32;20267;-62
2021/11/16 09:21:05;;;;;;;314.03;295.47;;;6.60;99.90;;;;;;4370161;32;20232;-62
2021/11/16 09:23:41;;;;;;;315.67;296.93;;;6.60;99.90;;;;;;4374891;32;20160;-61
2021/11/16 09:26:17;;;;;;;319.60;301.13;;;6.60;99.90;;;;;;4375914;32;20160;-62
2021/11/16 09:28:57;;;;;;;332.57;313.70;;;6.60;99.90;;;;;;4374936;32;20145;-62
2021/11/16 09:31:29;;;;;;;341.87;322.10;;;6.60;99.90;;;;;;4382208;32;20144;-62
2021/11/16 09:34:16;;;;;;;341.80;322.53;;;6.70;99.90;;;;;;4376173;32;20233;-61
2021/11/16 09:36:55;;;;;;;314.37;296.77;;;6.70;99.90;;;;;;4368262;32;20234;-61
2021/11/16 09:39:29;;;;;;;328.07;309.03;;;6.70;99.90;;;;;;4373554;32;20168;-63
2021/11/16 09:42:05;;;;;;;340.00;320.73;;;6.70;99.90;;;;;;4376974;32;20160;-62
2021/11/16 09:44:48;;;;;;;354.50;334.33;;;6.70;99.90;;;;;;4366024;32;20222;-63
2021/11/16 09:47:27;;;;;;;329.23;310.07;;;6.70;99.90;;;;;;4375325;32;20263;-62
2021/11/16 09:50:06;;;;;;;345.30;324.63;;;6.70;99.90;;;;;;4382132;32;20237;-61
2021/11/16 09:52:42;;;;;;;292.50;275.43;;;6.70;99.90;;;;;;4377982;32;20182;-60
2021/11/16 09:55:19;;;;;;;325.83;306.70;;;6.70;99.90;;;;;;4369793;32;20194;-62
2021/11/16 09:57:51;;;;;;;331.30;312.03;;;6.70;99.90;;;;;;4365165;32;20203;-63
2021/11/16 10:00:29;;;;;;;341.63;321.17;;;6.70;99.90;;;;;;4374629;32;20182;-61
2021/11/16 10:03:11;;;;;;;326.93;307.13;;;6.80;99.90;;;;;;4366685;32;20534;-60
2021/11/16 10:05:42;;;;;;;354.67;334.37;;;6.70;99.90;;;;;;4379557;32;20152;-63
2021/11/16 10:08:31;;;;;;;337.80;318.00;;;6.80;99.90;;;;;;4368664;32;20501;-60
2021/11/16 10:11:05;;;;;;;352.40;332.13;;;6.80;99.90;;;;;;4366054;32;20176;-63
2021/11/16 10:13:35;;;;;;;341.00;320.67;;;6.80;99.90;;;;;;4377396;32;20673;-60
2021/11/16 10:16:11;;;;;;;361.83;341.27;;;6.70;99.90;;;;;;4381284;32;20214;-60
2021/11/16 10:18:44;;;;;;;342.37;323.00;;;6.70;99.90;;;;;;4375103;32;20499;-61
2021/11/16 10:21:19;;;;;;;355.10;334.33;;;6.70;99.90;;;;;;4375739;32;20178;-61
2021/11/16 10:23:59;;;;;;;345.10;325.43;;;6.70;99.90;;;;;;4377369;32;20649;-60
2021/11/16 10:26:34;;;;;;;349.27;328.83;;;6.70;99.90;;;;;;4383038;32;20201;-61
2021/11/16 10:29:16;;;;;;;348.53;328.67;;;6.70;99.90;;;;;;4372106;32;20218;-60
2021/11/16 10:31:53;;;;;;;343.17;323.17;;;6.70;99.90;;;;;;4377654;32;20179;-60
2021/11/16 10:34:49;;;;;;;373.13;352.30;;;6.70;99.90;;;;;;4374285;32;20227;-60
2021/11/16 10:37:20;;;;;;;313.73;295.63;;;6.70;99.90;;;;;;4367414;32;20184;-61
2021/11/16 10:40:11;;;;;;;322.87;304.73;;;6.70;99.90;;;;;;4378119;32;20190;-60
2021/11/16 10:42:48;;;;;;;314.30;296.77;;;6.70;99.90;;;;;;4373940;32;20639;-60
2021/11/16 10:45:27;;;;;;;325.30;307.27;;;6.80;99.90;;;;;;4364966;32;20176;-61
2021/11/16 10:48:03;;;;;;;312.13;294.83;;;6.80;99.90;;;;;;4376575;32;20534;-60
2021/11/16 10:50:35;;;;;;;329.83;312.17;;;6.70;99.90;;;;;;4375843;32;20229;-60
2021/11/16 10:53:11;;;;;;;344.00;325.37;;;6.70;99.90;;;;;;4371645;32;20767;-61
2021/11/16 10:55:41;;;;;;;316.43;299.30;;;6.70;99.90;;;;;;4375411;32;20164;-60
2021/11/16 10:58:20;;;;;;;304.27;287.70;;;6.80;99.90;;;;;;4375297;32;20206;-61
2021/11/16 11:01:03;;;;;;;308.03;291.93;;;6.80;99.90;;;;;;4369108;32;20210;-61
2021/11/16 11:03:42;;;;;;;320.40;303.23;;;6.70;99.90;;;;;;4370575;32;20203;-61
2021/11/16 11:06:34;;;;;;;296.80;280.57;;;6.80;99.90;;;;;;4377034;32;20156;-61
2021/11/16 11:11:50;;;;;;;313.07;296.37;;;6.70;99.90;;;;;;4378540;32;20176;-61
2021/11/16 11:21:04;;;;;;;307.63;290.67;;;6.70;99.90;;;;;;4364798;32;20226;-61
2021/11/16 11:23:40;;;;;;;321.13;302.73;;;6.80;99.90;;;;;;4375752;32;20203;-61
2021/11/16 11:26:18;;;;;;;317.37;300.17;;;6.80;99.90;;;;;;4376564;32;20208;-61
2021/11/16 11:28:53;;;;;;;314.27;297.00;;;6.90;99.90;;;;;;4370160;32;20210;-61
2021/11/16 11:31:28;;;;;;;325.80;308.03;;;6.80;99.90;;;;;;4378108;32;20174;-61
2021/11/16 11:33:55;;;;;;;330.63;312.13;;;6.80;99.90;;;;;;4378491;32;20216;-61
2021/11/16 11:36:25;;;;;;;332.30;313.20;;;6.80;99.90;;;;;;4374727;32;20475;-61
2021/11/16 11:38:55;;;;;;;309.67;291.97;;;6.80;99.90;;;;;;4373926;32;20156;-62
2021/11/16 11:41:23;;;;;;;328.17;309.63;;;6.80;99.90;;;;;;4372915;32;20179;-61
2021/11/16 11:44:08;;;;;;;320.57;301.73;;;6.80;99.90;;;;;;4374060;32;20188;-64
2021/11/16 11:46:48;;;;;;;306.93;289.57;;;6.80;99.90;;;;;;4373892;32;20168;-61
2021/11/16 11:49:16;;;;;;;301.63;285.07;;;6.80;99.90;;;;;;4374061;32;20176;-63
2021/11/16 11:51:43;;;;;;;293.53;276.13;;;6.90;99.90;;;;;;4373949;32;20160;-61
2021/11/16 11:54:12;;;;;;;312.03;293.50;;;6.80;99.90;;;;;;4371163;32;20173;-62
2021/11/16 11:56:39;;;;;;;315.30;298.23;;;6.80;99.90;;;;;;4374528;32;20161;-64
2021/11/16 11:59:09;;;;;;;315.13;297.27;;;6.80;99.90;;;;;;4381325;32;20191;-64
2021/11/16 12:01:37;;;;;;;312.60;294.90;;;6.80;99.90;;;;;;4373945;32;20182;-62
2021/11/16 12:04:04;;;;;;;331.30;311.87;;;6.80;99.90;;;;;;4380547;32;20160;-62
2021/11/16 12:06:31;;;;;;;331.53;312.80;;;6.80;99.90;;;;;;4374705;32;20164;-63
2021/11/16 12:08:59;;;;;;;330.00;311.93;;;6.70;99.90;;;;;;4361824;32;20192;-62
2021/11/16 12:11:29;;;;;;;319.27;301.17;;;6.80;99.90;;;;;;4371978;32;20235;-61
2021/11/16 12:13:59;;;;;;;312.87;295.07;;;6.80;99.90;;;;;;4375628;32;20160;-61
2021/11/16 12:16:38;;;;;;;329.23;310.40;;;6.70;99.90;;;;;;4374839;32;20195;-60
2021/11/16 12:19:07;;;;;;;331.23;312.67;;;6.70;99.90;;;;;;4371612;32;20168;-62
2021/11/16 12:21:35;;;;;;;334.80;315.53;;;6.80;99.90;;;;;;4378310;32;20183;-61
2021/11/16 12:24:04;;;;;;;351.60;331.73;;;6.80;99.90;;;;;;4377327;32;20160;-63
2021/11/16 12:26:36;;;;;;;333.27;314.07;;;6.80;99.90;;;;;;4377465;32;20198;-63
2021/11/16 12:29:14;;;;;;;322.23;304.03;;;6.80;99.90;;;;;;4376606;32;20224;-61
2021/11/16 12:31:41;;;;;;;317.70;298.93;;;6.80;99.90;;;;;;4380454;32;20172;-63
2021/11/16 12:34:08;;;;;;;342.77;323.23;;;6.80;99.90;;;;;;4377333;32;20662;-64
2021/11/16 12:36:49;;;;;;;364.93;344.50;;;6.70;99.90;;;;;;4385044;32;20184;-61
2021/11/16 12:39:18;;;;;;;334.47;314.33;;;6.60;99.90;;;;;;4388666;32;20540;-61
2021/11/16 12:41:50;;;;;;;333.63;313.37;;;6.70;99.90;;;;;;4371077;32;20179;-61
2021/11/16 12:44:18;;;;;;;339.20;319.47;;;6.70;99.90;;;;;;4373171;32;20230;-61
2021/11/16 12:46:47;;;;;;;337.93;318.00;;;6.60;99.90;;;;;;4375853;32;20655;-61
2021/11/16 12:49:33;;;;;;;350.97;331.27;;;6.60;99.90;;;;;;4377075;32;20179;-63
2021/11/16 12:52:02;;;;;;;340.53;320.07;;;6.60;99.90;;;;;;4375920;32;20179;-61
2021/11/16 12:54:30;;;;;;;347.83;327.67;;;6.70;99.90;;;;;;4379819;32;20172;-64
2021/11/16 12:57:14;;;;;;;350.03;329.77;;;6.60;99.90;;;;;;4377570;32;20156;-62
2021/11/16 13:00:04;;;;;;;360.13;339.50;;;6.60;99.90;;;;;;4387057;32;20216;-62
2021/11/16 13:02:34;;;;;;;361.67;340.20;;;6.60;99.90;;;;;;4385805;32;20153;-62
2021/11/16 13:05:05;;;;;;;358.53;338.27;;;6.70;99.90;;;;;;4376548;32;20172;-61